Joplin Regional Airport
KJLN : now visible

Airfield :











YOU CAN JOIN US ON...

 
LOGIN :

Register | Disclaimer

   EN    FR    IT 

 









Legend :    VFR   Marginal VFR   IFR   Intensive IFR   Very Intensive IFR
Visi :
Ceiling :
>= 8 km
>= 3000ft
5 to 8 km
1000 to 3000 ft
1500m to 5 km
500 to 1000 ft
800 to 1500m
200 to 500 ft
< 800m
< 200 ft
Symbols :   Thunderstorms  Fog  Heavy snow  Heavy precipitations  Wind > 20 kt






- Airport Elevation : 981 ft
- IATA code : JLN


KJLN - Joplin Regional

CURRENT METAR :
  • 261453Z 02012G21KT 5SM RA BR OVC008 02/01 A3024 RMK AO2 SLP244 P0014 60031 T00170006 55009

EXPIRED METARs :
  • 261429Z 03010KT 2SM +RA BR BKN008 BKN014 OVC026 02/01 A3025 RMK AO2 P0011 T00170006
  • 261353Z 02011KT 4SM RA BR BKN008 OVC013 02/01 A3023 RMK AO2 SLP240 P0010 T00220011
  • 261253Z 36013G19KT 6SM -RA BR OVC006 03/01 A3024 RMK AO2 CIG 004V012 SLP245 P0007 T00280011

TAF KJLN
Valid from the 26 at 15:00 until the 27 at 12:00 UTC


261433Z 2615/2712 03010KT 2SM -RA BR OVC007
FM261700 02011G20KT 1 1/2SM BR OVC006
TEMPO 2617/2621 3/4SM -SHRA BR OVC001
FM262100 03011G21KT 3SM SHRA BR OVC006
FM270000 03010KT 4SM -DZ BR OVC006
PROB30 2702/2704 4SM -FZDZ BR OVC001
FM270400 03008KT 3SM -FZDZ BR OVC005
PROB30 2706/2712 4SM -FZDZ BR OVC001
KZKC FIR / North America



MET'MAP, your aeronautical weather chart ! - Copyright ORBIFLY December 2007 - Disclaimer

ORBIFLY MET'MAP TEAM :

Programming & Development : Alexandra Zaïnal
Concept & original design : Baudouin d'Aumeries
Assistance for programming : Marc-Olivier Méhu
Technical & hardware support : Manuel Goepfert

Contact : metmap@orbifly.com




SOURCES & CREDITS :

   NOAA       Earth
Advisory